sensor_id;sensor_type;location;lat;lon;timestamp;temperature;humidity
31309;DHT22;17936;52.446;10.840;2023-05-10T00:02:23;12.50;1.00
31309;DHT22;17936;52.446;10.840;2023-05-10T00:04:49;12.50;1.00
31309;DHT22;17936;52.446;10.840;2023-05-10T00:07:15;12.40;1.00
31309;DHT22;17936;52.446;10.840;2023-05-10T00:09:42;12.40;1.00
31309;DHT22;17936;52.446;10.840;2023-05-10T00:12:08;12.40;1.00
31309;DHT22;17936;52.446;10.840;2023-05-10T00:14:34;12.30;1.00
31309;DHT22;17936;52.446;10.840;2023-05-10T00:16:59;12.40;1.00
31309;DHT22;17936;52.446;10.840;2023-05-10T00:19:25;12.40;1.00
31309;DHT22;17936;52.446;10.840;2023-05-10T00:21:50;12.40;1.00
31309;DHT22;17936;52.446;10.840;2023-05-10T00:24:16;12.30;1.00
31309;DHT22;17936;52.446;10.840;2023-05-10T00:26:41;12.30;1.00
31309;DHT22;17936;52.446;10.840;2023-05-10T00:29:07;12.30;1.00
31309;DHT22;17936;52.446;10.840;2023-05-10T00:31:33;12.20;1.00
31309;DHT22;17936;52.446;10.840;2023-05-10T00:33:58;12.20;1.00
31309;DHT22;17936;52.446;10.840;2023-05-10T00:36:24;12.20;1.00
31309;DHT22;17936;52.446;10.840;2023-05-10T00:38:49;12.20;1.00
31309;DHT22;17936;52.446;10.840;2023-05-10T00:41:15;12.20;1.00
31309;DHT22;17936;52.446;10.840;2023-05-10T00:43:41;12.20;1.00
31309;DHT22;17936;52.446;10.840;2023-05-10T00:46:06;12.20;1.00
31309;DHT22;17936;52.446;10.840;2023-05-10T00:48:32;12.20;1.00
31309;DHT22;17936;52.446;10.840;2023-05-10T00:50:58;12.20;1.00
31309;DHT22;17936;52.446;10.840;2023-05-10T00:53:24;12.10;1.00
31309;DHT22;17936;52.446;10.840;2023-05-10T00:55:50;12.20;1.00
31309;DHT22;17936;52.446;10.840;2023-05-10T00:58:16;12.20;1.00
31309;DHT22;17936;52.446;10.840;2023-05-10T01:00:42;12.10;1.00
31309;DHT22;17936;52.446;10.840;2023-05-10T01:03:11;12.20;1.00
31309;DHT22;17936;52.446;10.840;2023-05-10T01:05:37;12.10;1.00
31309;DHT22;17936;52.446;10.840;2023-05-10T01:08:02;12.10;1.00
31309;DHT22;17936;52.446;10.840;2023-05-10T01:10:28;12.10;1.00
31309;DHT22;17936;52.446;10.840;2023-05-10T01:12:54;12.10;1.00
31309;DHT22;17936;52.446;10.840;2023-05-10T01:15:21;12.10;1.00
31309;DHT22;17936;52.446;10.840;2023-05-10T01:17:48;12.10;1.00
31309;DHT22;17936;52.446;10.840;2023-05-10T01:20:14;12.10;1.00
31309;DHT22;17936;52.446;10.840;2023-05-10T01:31:07;12.00;1.00
31309;DHT22;17936;52.446;10.840;2023-05-10T01:33:40;11.90;1.00
31309;DHT22;17936;52.446;10.840;2023-05-10T01:36:32;11.90;1.00
31309;DHT22;17936;52.446;10.840;2023-05-10T01:42:08;11.80;1.00
31309;DHT22;17936;52.446;10.840;2023-05-10T01:47:15;11.80;1.00
31309;DHT22;17936;52.446;10.840;2023-05-10T01:49:47;11.70;1.00
31309;DHT22;17936;52.446;10.840;2023-05-10T01:52:16;11.70;1.00
31309;DHT22;17936;52.446;10.840;2023-05-10T01:54:50;11.70;1.00
31309;DHT22;17936;52.446;10.840;2023-05-10T01:57:20;11.60;1.00
31309;DHT22;17936;52.446;10.840;2023-05-10T01:59:49;11.70;1.00
31309;DHT22;17936;52.446;10.840;2023-05-10T02:02:15;11.60;1.00
31309;DHT22;17936;52.446;10.840;2023-05-10T02:04:43;11.60;1.00
31309;DHT22;17936;52.446;10.840;2023-05-10T02:07:10;11.60;1.00
31309;DHT22;17936;52.446;10.840;2023-05-10T02:09:37;11.50;1.00
31309;DHT22;17936;52.446;10.840;2023-05-10T02:12:05;11.50;1.00
31309;DHT22;17936;52.446;10.840;2023-05-10T02:14:35;11.50;1.00
31309;DHT22;17936;52.446;10.840;2023-05-10T02:17:03;11.50;1.00
31309;DHT22;17936;52.446;10.840;2023-05-10T02:19:30;11.40;1.00
31309;DHT22;17936;52.446;10.840;2023-05-10T02:21:57;11.40;1.00
31309;DHT22;17936;52.446;10.840;2023-05-10T02:24:24;11.50;1.00
31309;DHT22;17936;52.446;10.840;2023-05-10T02:26:51;11.50;1.00
31309;DHT22;17936;52.446;10.840;2023-05-10T02:29:18;11.50;1.00
31309;DHT22;17936;52.446;10.840;2023-05-10T02:31:45;11.40;1.00
31309;DHT22;17936;52.446;10.840;2023-05-10T02:34:11;11.40;1.00
31309;DHT22;17936;52.446;10.840;2023-05-10T02:36:38;11.40;1.00
31309;DHT22;17936;52.446;10.840;2023-05-10T02:39:05;11.50;1.00
31309;DHT22;17936;52.446;10.840;2023-05-10T02:41:35;11.40;1.00
31309;DHT22;17936;52.446;10.840;2023-05-10T02:44:02;11.40;1.00
31309;DHT22;17936;52.446;10.840;2023-05-10T02:46:29;11.40;1.00
31309;DHT22;17936;52.446;10.840;2023-05-10T02:48:55;11.40;1.00
31309;DHT22;17936;52.446;10.840;2023-05-10T02:51:21;11.30;1.00
31309;DHT22;17936;52.446;10.840;2023-05-10T02:53:53;11.40;1.00
31309;DHT22;17936;52.446;10.840;2023-05-10T02:56:25;11.30;1.00
31309;DHT22;17936;52.446;10.840;2023-05-10T02:58:51;11.30;1.00
31309;DHT22;17936;52.446;10.840;2023-05-10T03:01:17;11.30;1.00
31309;DHT22;17936;52.446;10.840;2023-05-10T03:03:42;11.30;1.00
31309;DHT22;17936;52.446;10.840;2023-05-10T03:06:08;11.30;1.00
31309;DHT22;17936;52.446;10.840;2023-05-10T03:08:34;11.20;1.00
31309;DHT22;17936;52.446;10.840;2023-05-10T03:16:50;11.20;1.00
31309;DHT22;17936;52.446;10.840;2023-05-10T03:21:51;11.20;1.00
31309;DHT22;17936;52.446;10.840;2023-05-10T03:24:21;11.20;1.00
31309;DHT22;17936;52.446;10.840;2023-05-10T03:26:47;11.20;1.00
31309;DHT22;17936;52.446;10.840;2023-05-10T03:29:14;11.20;1.00
31309;DHT22;17936;52.446;10.840;2023-05-10T03:31:40;11.20;1.00
31309;DHT22;17936;52.446;10.840;2023-05-10T03:34:06;11.20;1.00
31309;DHT22;17936;52.446;10.840;2023-05-10T03:36:32;11.20;1.00
31309;DHT22;17936;52.446;10.840;2023-05-10T03:38:58;11.20;1.00
31309;DHT22;17936;52.446;10.840;2023-05-10T03:41:23;11.20;1.00
31309;DHT22;17936;52.446;10.840;2023-05-10T03:43:50;11.10;1.00
31309;DHT22;17936;52.446;10.840;2023-05-10T03:46:16;11.10;1.00
31309;DHT22;17936;52.446;10.840;2023-05-10T03:48:41;11.10;1.00
31309;DHT22;17936;52.446;10.840;2023-05-10T03:51:06;11.10;1.00
31309;DHT22;17936;52.446;10.840;2023-05-10T03:53:35;11.10;1.00
31309;DHT22;17936;52.446;10.840;2023-05-10T03:56:01;11.10;1.00
31309;DHT22;17936;52.446;10.840;2023-05-10T03:58:26;11.10;1.00
31309;DHT22;17936;52.446;10.840;2023-05-10T04:00:52;11.10;1.00
31309;DHT22;17936;52.446;10.840;2023-05-10T04:03:17;11.10;1.00
31309;DHT22;17936;52.446;10.840;2023-05-10T04:05:43;11.20;1.00
31309;DHT22;17936;52.446;10.840;2023-05-10T04:08:08;11.20;1.00
31309;DHT22;17936;52.446;10.840;2023-05-10T04:10:34;11.10;1.00
31309;DHT22;17936;52.446;10.840;2023-05-10T04:13:00;11.20;1.00
31309;DHT22;17936;52.446;10.840;2023-05-10T04:15:25;11.20;1.00
31309;DHT22;17936;52.446;10.840;2023-05-10T04:17:51;11.20;1.00
31309;DHT22;17936;52.446;10.840;2023-05-10T04:20:16;11.20;1.00
31309;DHT22;17936;52.446;10.840;2023-05-10T04:22:42;11.30;2.40
31309;DHT22;17936;52.446;10.840;2023-05-10T04:25:08;11.20;2.80
31309;DHT22;17936;52.446;10.840;2023-05-10T04:27:34;11.20;5.40
31309;DHT22;17936;52.446;10.840;2023-05-10T04:29:59;11.30;8.30
31309;DHT22;17936;52.446;10.840;2023-05-10T04:32:25;11.30;10.10
31309;DHT22;17936;52.446;10.840;2023-05-10T04:34:50;11.20;9.40
31309;DHT22;17936;52.446;10.840;2023-05-10T04:37:18;11.30;13.00
31309;DHT22;17936;52.446;10.840;2023-05-10T04:39:44;11.30;16.80
31309;DHT22;17936;52.446;10.840;2023-05-10T04:42:10;11.30;15.70
31309;DHT22;17936;52.446;10.840;2023-05-10T04:44:35;11.40;16.80
31309;DHT22;17936;52.446;10.840;2023-05-10T04:47:01;11.40;19.60
31309;DHT22;17936;52.446;10.840;2023-05-10T04:49:28;11.60;19.60
31309;DHT22;17936;52.446;10.840;2023-05-10T04:51:54;11.60;17.30
31309;DHT22;17936;52.446;10.840;2023-05-10T04:54:20;11.80;16.50
31309;DHT22;17936;52.446;10.840;2023-05-10T04:56:45;12.00;18.00
31309;DHT22;17936;52.446;10.840;2023-05-10T04:59:11;12.10;16.40
31309;DHT22;17936;52.446;10.840;2023-05-10T05:01:36;12.30;17.40
31309;DHT22;17936;52.446;10.840;2023-05-10T05:04:02;12.40;15.30
31309;DHT22;17936;52.446;10.840;2023-05-10T05:06:27;12.30;13.10
31309;DHT22;17936;52.446;10.840;2023-05-10T05:08:53;12.40;16.10
31309;DHT22;17936;52.446;10.840;2023-05-10T05:11:19;12.40;12.40
31309;DHT22;17936;52.446;10.840;2023-05-10T05:13:44;12.50;11.20
31309;DHT22;17936;52.446;10.840;2023-05-10T05:16:10;12.70;12.00
31309;DHT22;17936;52.446;10.840;2023-05-10T05:18:36;12.60;10.10
31309;DHT22;17936;52.446;10.840;2023-05-10T05:21:02;12.70;11.70
31309;DHT22;17936;52.446;10.840;2023-05-10T05:23:27;12.70;11.00
31309;DHT22;17936;52.446;10.840;2023-05-10T05:25:53;13.00;12.90
31309;DHT22;17936;52.446;10.840;2023-05-10T05:28:19;13.30;11.70
31309;DHT22;17936;52.446;10.840;2023-05-10T05:30:45;13.20;8.30
31309;DHT22;17936;52.446;10.840;2023-05-10T05:33:11;13.30;8.30
31309;DHT22;17936;52.446;10.840;2023-05-10T05:35:38;13.20;6.50
31309;DHT22;17936;52.446;10.840;2023-05-10T05:38:03;13.10;6.40
31309;DHT22;17936;52.446;10.840;2023-05-10T05:40:29;12.90;6.50
31309;DHT22;17936;52.446;10.840;2023-05-10T05:42:54;12.90;7.60
31309;DHT22;17936;52.446;10.840;2023-05-10T05:45:20;12.80;8.50
31309;DHT22;17936;52.446;10.840;2023-05-10T05:47:46;12.80;9.30
31309;DHT22;17936;52.446;10.840;2023-05-10T05:50:12;12.80;10.30
31309;DHT22;17936;52.446;10.840;2023-05-10T05:52:37;12.60;9.40
31309;DHT22;17936;52.446;10.840;2023-05-10T05:55:03;12.60;12.60
31309;DHT22;17936;52.446;10.840;2023-05-10T05:57:30;12.60;12.90
31309;DHT22;17936;52.446;10.840;2023-05-10T05:59:55;12.60;13.10
31309;DHT22;17936;52.446;10.840;2023-05-10T06:02:21;12.60;15.60
31309;DHT22;17936;52.446;10.840;2023-05-10T06:04:46;12.70;17.30
31309;DHT22;17936;52.446;10.840;2023-05-10T06:07:12;12.60;16.80
31309;DHT22;17936;52.446;10.840;2023-05-10T06:09:37;12.50;15.00
31309;DHT22;17936;52.446;10.840;2023-05-10T06:12:03;12.50;18.20
31309;DHT22;17936;52.446;10.840;2023-05-10T06:14:28;12.50;18.10
31309;DHT22;17936;52.446;10.840;2023-05-10T06:16:54;12.50;21.00
31309;DHT22;17936;52.446;10.840;2023-05-10T06:19:19;12.50;22.80
31309;DHT22;17936;52.446;10.840;2023-05-10T06:21:45;12.60;23.30
31309;DHT22;17936;52.446;10.840;2023-05-10T06:24:10;12.80;27.50
31309;DHT22;17936;52.446;10.840;2023-05-10T06:26:36;12.70;25.10
31309;DHT22;17936;52.446;10.840;2023-05-10T06:29:01;12.60;23.70
31309;DHT22;17936;52.446;10.840;2023-05-10T06:31:27;12.60;26.00
31309;DHT22;17936;52.446;10.840;2023-05-10T06:33:53;12.70;23.20
31309;DHT22;17936;52.446;10.840;2023-05-10T06:36:18;12.60;24.90
31309;DHT22;17936;52.446;10.840;2023-05-10T06:38:44;12.80;26.00
31309;DHT22;17936;52.446;10.840;2023-05-10T06:41:09;12.90;24.20
31309;DHT22;17936;52.446;10.840;2023-05-10T06:43:35;12.80;26.20
31309;DHT22;17936;52.446;10.840;2023-05-10T06:46:00;12.80;25.50
31309;DHT22;17936;52.446;10.840;2023-05-10T06:48:26;12.80;28.30
31309;DHT22;17936;52.446;10.840;2023-05-10T06:50:51;12.70;26.10
31309;DHT22;17936;52.446;10.840;2023-05-10T06:53:17;12.80;28.40
31309;DHT22;17936;52.446;10.840;2023-05-10T06:55:42;12.80;28.60
31309;DHT22;17936;52.446;10.840;2023-05-10T06:58:08;12.90;38.70
31309;DHT22;17936;52.446;10.840;2023-05-10T07:00:34;13.00;30.10
31309;DHT22;17936;52.446;10.840;2023-05-10T07:02:59;13.10;33.10
31309;DHT22;17936;52.446;10.840;2023-05-10T07:05:25;12.90;32.90
31309;DHT22;17936;52.446;10.840;2023-05-10T07:07:52;12.80;32.90
31309;DHT22;17936;52.446;10.840;2023-05-10T07:10:18;13.00;34.40
31309;DHT22;17936;52.446;10.840;2023-05-10T07:12:43;13.40;37.40
31309;DHT22;17936;52.446;10.840;2023-05-10T07:15:09;13.40;30.70
31309;DHT22;17936;52.446;10.840;2023-05-10T07:17:35;13.50;33.20
31309;DHT22;17936;52.446;10.840;2023-05-10T07:20:01;13.50;29.90
31309;DHT22;17936;52.446;10.840;2023-05-10T07:22:26;13.10;30.70
31309;DHT22;17936;52.446;10.840;2023-05-10T07:24:52;13.20;33.80
31309;DHT22;17936;52.446;10.840;2023-05-10T07:27:17;13.20;30.30
31309;DHT22;17936;52.446;10.840;2023-05-10T07:29:43;13.40;35.50
31309;DHT22;17936;52.446;10.840;2023-05-10T07:32:08;13.50;34.30
31309;DHT22;17936;52.446;10.840;2023-05-10T07:34:34;13.60;31.80
31309;DHT22;17936;52.446;10.840;2023-05-10T07:37:00;13.50;36.20
31309;DHT22;17936;52.446;10.840;2023-05-10T07:39:26;13.60;36.50
31309;DHT22;17936;52.446;10.840;2023-05-10T07:41:52;13.90;36.00
31309;DHT22;17936;52.446;10.840;2023-05-10T07:44:17;13.90;34.00
31309;DHT22;17936;52.446;10.840;2023-05-10T07:46:46;14.00;31.70
31309;DHT22;17936;52.446;10.840;2023-05-10T07:49:12;14.10;29.70
31309;DHT22;17936;52.446;10.840;2023-05-10T07:51:38;14.30;33.30
31309;DHT22;17936;52.446;10.840;2023-05-10T07:54:03;14.50;29.80
31309;DHT22;17936;52.446;10.840;2023-05-10T07:56:30;14.90;29.60
31309;DHT22;17936;52.446;10.840;2023-05-10T07:59:01;15.00;29.80
31309;DHT22;17936;52.446;10.840;2023-05-10T08:01:30;15.10;23.50
31309;DHT22;17936;52.446;10.840;2023-05-10T08:03:56;14.90;25.90
31309;DHT22;17936;52.446;10.840;2023-05-10T08:06:21;14.80;25.10
31309;DHT22;17936;52.446;10.840;2023-05-10T08:08:48;15.00;27.60
31309;DHT22;17936;52.446;10.840;2023-05-10T08:11:15;15.40;26.10
31309;DHT22;17936;52.446;10.840;2023-05-10T08:13:41;15.00;27.20
31309;DHT22;17936;52.446;10.840;2023-05-10T08:16:07;15.20;26.30
31309;DHT22;17936;52.446;10.840;2023-05-10T08:18:32;15.20;24.30
31309;DHT22;17936;52.446;10.840;2023-05-10T08:20:58;15.20;27.20
31309;DHT22;17936;52.446;10.840;2023-05-10T08:23:23;15.40;24.00
31309;DHT22;17936;52.446;10.840;2023-05-10T08:25:49;15.80;24.70
31309;DHT22;17936;52.446;10.840;2023-05-10T08:28:14;15.90;22.70
31309;DHT22;17936;52.446;10.840;2023-05-10T08:30:40;15.70;23.90
31309;DHT22;17936;52.446;10.840;2023-05-10T08:33:05;15.60;24.50
31309;DHT22;17936;52.446;10.840;2023-05-10T08:35:31;15.70;28.70
31309;DHT22;17936;52.446;10.840;2023-05-10T08:37:58;15.40;26.20
31309;DHT22;17936;52.446;10.840;2023-05-10T08:40:24;15.50;28.10
31309;DHT22;17936;52.446;10.840;2023-05-10T08:43:05;15.50;29.50
31309;DHT22;17936;52.446;10.840;2023-05-10T08:45:34;15.70;35.50
31309;DHT22;17936;52.446;10.840;2023-05-10T08:48:01;15.90;38.90
31309;DHT22;17936;52.446;10.840;2023-05-10T08:50:27;15.90;43.80
31309;DHT22;17936;52.446;10.840;2023-05-10T08:52:59;15.70;42.70
31309;DHT22;17936;52.446;10.840;2023-05-10T08:55:25;15.60;47.50
31309;DHT22;17936;52.446;10.840;2023-05-10T08:57:51;15.60;50.00
31309;DHT22;17936;52.446;10.840;2023-05-10T09:00:17;15.20;53.90
31309;DHT22;17936;52.446;10.840;2023-05-10T09:02:43;15.30;81.40
31309;DHT22;17936;52.446;10.840;2023-05-10T09:05:11;15.20;98.10
31309;DHT22;17936;52.446;10.840;2023-05-10T09:07:37;15.30;99.90
31309;DHT22;17936;52.446;10.840;2023-05-10T09:10:04;15.40;99.90
31309;DHT22;17936;52.446;10.840;2023-05-10T09:12:29;15.30;99.90
31309;DHT22;17936;52.446;10.840;2023-05-10T09:14:55;15.00;79.60
31309;DHT22;17936;52.446;10.840;2023-05-10T09:17:24;14.90;99.90
31309;DHT22;17936;52.446;10.840;2023-05-10T09:19:50;14.70;99.90
31309;DHT22;17936;52.446;10.840;2023-05-10T09:22:22;14.60;1.00
31309;DHT22;17936;52.446;10.840;2023-05-10T09:24:48;14.60;99.90
31309;DHT22;17936;52.446;10.840;2023-05-10T09:27:28;14.30;1.00
31309;DHT22;17936;52.446;10.840;2023-05-10T09:29:53;14.30;26.80
31309;DHT22;17936;52.446;10.840;2023-05-10T09:32:20;14.10;50.30
31309;DHT22;17936;52.446;10.840;2023-05-10T09:34:46;14.20;90.20
31309;DHT22;17936;52.446;10.840;2023-05-10T09:37:14;14.10;96.70
31309;DHT22;17936;52.446;10.840;2023-05-10T09:39:40;14.10;98.10
31309;DHT22;17936;52.446;10.840;2023-05-10T09:42:08;13.90;99.90
31309;DHT22;17936;52.446;10.840;2023-05-10T09:44:34;13.90;99.90
31309;DHT22;17936;52.446;10.840;2023-05-10T09:47:02;13.90;99.90
31309;DHT22;17936;52.446;10.840;2023-05-10T09:49:28;14.20;99.90
31309;DHT22;17936;52.446;10.840;2023-05-10T09:52:06;14.20;99.90
31309;DHT22;17936;52.446;10.840;2023-05-10T09:54:33;14.10;99.90
31309;DHT22;17936;52.446;10.840;2023-05-10T09:56:59;14.10;99.90
31309;DHT22;17936;52.446;10.840;2023-05-10T09:59:26;14.20;99.90
31309;DHT22;17936;52.446;10.840;2023-05-10T10:01:55;14.20;99.90
31309;DHT22;17936;52.446;10.840;2023-05-10T10:04:21;14.10;99.90
31309;DHT22;17936;52.446;10.840;2023-05-10T10:06:46;14.30;99.90
31309;DHT22;17936;52.446;10.840;2023-05-10T10:09:23;14.20;99.90
31309;DHT22;17936;52.446;10.840;2023-05-10T10:11:49;14.30;99.90
31309;DHT22;17936;52.446;10.840;2023-05-10T10:14:14;14.30;99.90
31309;DHT22;17936;52.446;10.840;2023-05-10T10:16:41;14.30;99.90
31309;DHT22;17936;52.446;10.840;2023-05-10T10:19:06;14.30;99.90
31309;DHT22;17936;52.446;10.840;2023-05-10T10:21:32;14.50;99.90
31309;DHT22;17936;52.446;10.840;2023-05-10T10:23:58;14.80;99.90
31309;DHT22;17936;52.446;10.840;2023-05-10T10:26:24;14.90;99.90
31309;DHT22;17936;52.446;10.840;2023-05-10T10:34:38;14.80;99.90
31309;DHT22;17936;52.446;10.840;2023-05-10T10:37:05;15.10;99.90
31309;DHT22;17936;52.446;10.840;2023-05-10T10:39:31;15.30;99.90
31309;DHT22;17936;52.446;10.840;2023-05-10T10:41:58;15.00;99.90
31309;DHT22;17936;52.446;10.840;2023-05-10T10:44:24;14.80;99.90
31309;DHT22;17936;52.446;10.840;2023-05-10T10:47:09;15.00;99.90
31309;DHT22;17936;52.446;10.840;2023-05-10T10:49:49;15.10;99.90
31309;DHT22;17936;52.446;10.840;2023-05-10T10:52:27;15.00;99.90
31309;DHT22;17936;52.446;10.840;2023-05-10T10:55:14;14.90;99.90
31309;DHT22;17936;52.446;10.840;2023-05-10T10:57:44;14.80;99.90
31309;DHT22;17936;52.446;10.840;2023-05-10T11:00:19;14.90;99.90
31309;DHT22;17936;52.446;10.840;2023-05-10T11:02:46;14.80;99.90
31309;DHT22;17936;52.446;10.840;2023-05-10T11:07:59;15.00;99.90
31309;DHT22;17936;52.446;10.840;2023-05-10T11:10:26;14.90;99.90
31309;DHT22;17936;52.446;10.840;2023-05-10T11:12:53;14.80;99.90
31309;DHT22;17936;52.446;10.840;2023-05-10T11:15:33;14.70;99.90
31309;DHT22;17936;52.446;10.840;2023-05-10T11:17:59;14.70;99.90
31309;DHT22;17936;52.446;10.840;2023-05-10T11:20:27;14.50;99.90
31309;DHT22;17936;52.446;10.840;2023-05-10T11:23:10;14.60;99.90
31309;DHT22;17936;52.446;10.840;2023-05-10T11:25:44;14.70;99.90
31309;DHT22;17936;52.446;10.840;2023-05-10T11:28:10;14.60;99.90
31309;DHT22;17936;52.446;10.840;2023-05-10T11:30:37;14.70;99.90
31309;DHT22;17936;52.446;10.840;2023-05-10T11:33:03;14.70;99.90
31309;DHT22;17936;52.446;10.840;2023-05-10T11:35:29;14.60;99.90
31309;DHT22;17936;52.446;10.840;2023-05-10T11:37:54;14.70;99.90
31309;DHT22;17936;52.446;10.840;2023-05-10T11:40:22;14.40;99.90
31309;DHT22;17936;52.446;10.840;2023-05-10T11:42:51;14.60;99.90
31309;DHT22;17936;52.446;10.840;2023-05-10T11:45:17;14.70;99.90
31309;DHT22;17936;52.446;10.840;2023-05-10T11:47:42;14.80;99.90
31309;DHT22;17936;52.446;10.840;2023-05-10T11:50:10;14.80;99.90
31309;DHT22;17936;52.446;10.840;2023-05-10T11:52:36;15.10;99.90
31309;DHT22;17936;52.446;10.840;2023-05-10T11:55:05;14.80;99.90
31309;DHT22;17936;52.446;10.840;2023-05-10T11:57:31;14.70;99.90
31309;DHT22;17936;52.446;10.840;2023-05-10T11:59:57;14.50;99.90
31309;DHT22;17936;52.446;10.840;2023-05-10T12:02:23;14.70;99.90
31309;DHT22;17936;52.446;10.840;2023-05-10T12:04:49;14.60;99.90
31309;DHT22;17936;52.446;10.840;2023-05-10T12:07:16;14.90;99.90
31309;DHT22;17936;52.446;10.840;2023-05-10T12:10:01;15.10;99.90
31309;DHT22;17936;52.446;10.840;2023-05-10T12:12:27;15.00;99.90
31309;DHT22;17936;52.446;10.840;2023-05-10T12:14:52;14.80;99.90
31309;DHT22;17936;52.446;10.840;2023-05-10T12:17:18;14.60;99.90
31309;DHT22;17936;52.446;10.840;2023-05-10T12:19:43;14.20;99.90
31309;DHT22;17936;52.446;10.840;2023-05-10T12:22:09;14.20;99.90
31309;DHT22;17936;52.446;10.840;2023-05-10T12:24:37;14.30;99.90
31309;DHT22;17936;52.446;10.840;2023-05-10T12:27:10;14.20;99.90
31309;DHT22;17936;52.446;10.840;2023-05-10T12:29:41;14.20;99.90
31309;DHT22;17936;52.446;10.840;2023-05-10T12:32:09;14.10;99.90
31309;DHT22;17936;52.446;10.840;2023-05-10T12:34:34;14.10;99.90
31309;DHT22;17936;52.446;10.840;2023-05-10T12:37:02;14.30;99.90
31309;DHT22;17936;52.446;10.840;2023-05-10T12:39:42;14.30;99.90
31309;DHT22;17936;52.446;10.840;2023-05-10T12:42:07;14.30;99.90
31309;DHT22;17936;52.446;10.840;2023-05-10T12:44:33;14.10;99.90
31309;DHT22;17936;52.446;10.840;2023-05-10T12:46:59;14.10;99.90
31309;DHT22;17936;52.446;10.840;2023-05-10T12:49:24;14.30;99.90
31309;DHT22;17936;52.446;10.840;2023-05-10T12:51:50;14.30;99.90
31309;DHT22;17936;52.446;10.840;2023-05-10T12:54:15;14.30;99.90
31309;DHT22;17936;52.446;10.840;2023-05-10T12:56:41;14.30;99.90
31309;DHT22;17936;52.446;10.840;2023-05-10T12:59:07;14.60;99.90
31309;DHT22;17936;52.446;10.840;2023-05-10T13:01:33;14.70;99.90
31309;DHT22;17936;52.446;10.840;2023-05-10T13:03:58;14.80;99.90
31309;DHT22;17936;52.446;10.840;2023-05-10T13:06:25;14.70;99.90
31309;DHT22;17936;52.446;10.840;2023-05-10T13:08:51;14.80;99.90
31309;DHT22;17936;52.446;10.840;2023-05-10T13:11:17;14.60;99.90
31309;DHT22;17936;52.446;10.840;2023-05-10T13:13:45;14.70;99.90
31309;DHT22;17936;52.446;10.840;2023-05-10T13:16:10;15.10;99.90
31309;DHT22;17936;52.446;10.840;2023-05-10T13:18:36;15.30;99.90
31309;DHT22;17936;52.446;10.840;2023-05-10T13:21:01;15.50;99.90
31309;DHT22;17936;52.446;10.840;2023-05-10T13:23:29;15.70;99.90
31309;DHT22;17936;52.446;10.840;2023-05-10T13:25:54;15.80;99.90
31309;DHT22;17936;52.446;10.840;2023-05-10T13:28:20;16.10;99.90
31309;DHT22;17936;52.446;10.840;2023-05-10T13:30:45;16.40;99.90
31309;DHT22;17936;52.446;10.840;2023-05-10T13:33:11;15.80;99.90
31309;DHT22;17936;52.446;10.840;2023-05-10T13:35:36;15.70;99.90
31309;DHT22;17936;52.446;10.840;2023-05-10T13:38:02;15.90;99.90
31309;DHT22;17936;52.446;10.840;2023-05-10T13:40:27;15.90;99.90
31309;DHT22;17936;52.446;10.840;2023-05-10T13:42:53;16.20;99.90
31309;DHT22;17936;52.446;10.840;2023-05-10T13:45:19;16.10;99.90
31309;DHT22;17936;52.446;10.840;2023-05-10T13:47:44;16.50;99.90
31309;DHT22;17936;52.446;10.840;2023-05-10T13:50:10;16.40;99.90
31309;DHT22;17936;52.446;10.840;2023-05-10T13:52:35;16.70;99.90
31309;DHT22;17936;52.446;10.840;2023-05-10T13:55:01;16.60;99.90
31309;DHT22;17936;52.446;10.840;2023-05-10T13:57:26;16.70;99.90
31309;DHT22;17936;52.446;10.840;2023-05-10T13:59:54;16.70;99.90
31309;DHT22;17936;52.446;10.840;2023-05-10T14:02:19;16.40;99.90
31309;DHT22;17936;52.446;10.840;2023-05-10T14:04:45;16.40;99.90
31309;DHT22;17936;52.446;10.840;2023-05-10T14:07:11;16.40;99.90
31309;DHT22;17936;52.446;10.840;2023-05-10T14:09:36;16.70;99.90
31309;DHT22;17936;52.446;10.840;2023-05-10T14:12:02;16.50;99.90
31309;DHT22;17936;52.446;10.840;2023-05-10T14:14:27;17.00;99.90
31309;DHT22;17936;52.446;10.840;2023-05-10T14:16:54;16.90;99.90
31309;DHT22;17936;52.446;10.840;2023-05-10T14:19:19;16.70;99.90
31309;DHT22;17936;52.446;10.840;2023-05-10T14:21:45;16.80;99.90
31309;DHT22;17936;52.446;10.840;2023-05-10T14:24:11;16.90;99.90
31309;DHT22;17936;52.446;10.840;2023-05-10T14:26:37;16.80;99.90
31309;DHT22;17936;52.446;10.840;2023-05-10T14:29:02;17.10;99.90
31309;DHT22;17936;52.446;10.840;2023-05-10T14:31:28;16.90;99.90
31309;DHT22;17936;52.446;10.840;2023-05-10T14:33:55;17.30;99.90
31309;DHT22;17936;52.446;10.840;2023-05-10T14:36:21;17.30;99.90
31309;DHT22;17936;52.446;10.840;2023-05-10T14:38:46;17.60;99.90
31309;DHT22;17936;52.446;10.840;2023-05-10T14:41:11;17.70;99.90
31309;DHT22;17936;52.446;10.840;2023-05-10T14:43:40;17.50;99.90
31309;DHT22;17936;52.446;10.840;2023-05-10T14:46:06;17.50;99.90
31309;DHT22;17936;52.446;10.840;2023-05-10T14:48:31;17.70;99.90
31309;DHT22;17936;52.446;10.840;2023-05-10T14:50:57;17.50;99.90
31309;DHT22;17936;52.446;10.840;2023-05-10T14:53:22;17.20;99.90
31309;DHT22;17936;52.446;10.840;2023-05-10T14:55:48;17.50;99.90
31309;DHT22;17936;52.446;10.840;2023-05-10T14:58:13;17.50;99.90
31309;DHT22;17936;52.446;10.840;2023-05-10T15:00:40;17.10;99.90
31309;DHT22;17936;52.446;10.840;2023-05-10T15:03:05;17.30;99.90
31309;DHT22;17936;52.446;10.840;2023-05-10T15:05:31;17.50;99.90
31309;DHT22;17936;52.446;10.840;2023-05-10T15:07:56;17.10;99.90
31309;DHT22;17936;52.446;10.840;2023-05-10T15:10:22;16.90;99.90
31309;DHT22;17936;52.446;10.840;2023-05-10T15:12:47;17.20;99.90
31309;DHT22;17936;52.446;10.840;2023-05-10T15:15:13;17.10;99.90
31309;DHT22;17936;52.446;10.840;2023-05-10T15:17:38;17.20;99.90
31309;DHT22;17936;52.446;10.840;2023-05-10T15:20:04;17.00;99.90
31309;DHT22;17936;52.446;10.840;2023-05-10T15:22:30;16.90;99.90
31309;DHT22;17936;52.446;10.840;2023-05-10T15:25:00;16.90;99.90
31309;DHT22;17936;52.446;10.840;2023-05-10T15:27:25;16.90;99.90
31309;DHT22;17936;52.446;10.840;2023-05-10T15:29:52;16.90;99.90
31309;DHT22;17936;52.446;10.840;2023-05-10T15:32:17;17.00;99.90
31309;DHT22;17936;52.446;10.840;2023-05-10T15:34:43;16.70;99.90
31309;DHT22;17936;52.446;10.840;2023-05-10T15:37:08;16.70;99.90
31309;DHT22;17936;52.446;10.840;2023-05-10T15:39:34;16.60;99.90
31309;DHT22;17936;52.446;10.840;2023-05-10T15:41:59;16.90;99.90
31309;DHT22;17936;52.446;10.840;2023-05-10T15:44:26;17.00;99.90
31309;DHT22;17936;52.446;10.840;2023-05-10T15:46:51;16.90;99.90
31309;DHT22;17936;52.446;10.840;2023-05-10T15:49:17;16.90;99.90